Terminal Aerodrome Forecast
Issued by NWS Houston/Galveston, TX

Home | Current Version | Previous Version | Text Only | Print | Product List | Glossary On
Versions: 1 2 3 4 5 6 7 8 9 10 11 12 13 14 15 16 17 18 19 20 21 22 23 24 25 26 27
000
FTUS44 KHGX 012335
TAFCLL
TAF
KCLL 012335Z 0200/0224 13008KT P6SM SCT060
     FM020100 16006KT P6SM SCT100
     FM020900 17006KT P6SM SCT005 BKN015
      TEMPO 0210/0212 5SM BR BKN005
     FM021400 18011KT P6SM SCT015 BKN025
     FM021800 17011KT P6SM SCT025 BKN050=

USA.gov is the U.S. government's official web portal to all federal, state and local government web resources and services.